createdAt,value
2023-01-17T00:02:21.309Z,98306.97
2023-01-17T00:05:07.588Z,98302.69
2023-01-17T00:07:54.023Z,98294.88
2023-01-17T00:10:24.417Z,98299.94
2023-01-17T00:12:57.441Z,98301.75
2023-01-17T00:15:26.332Z,98294.81
2023-01-17T00:17:54.609Z,98287.03
2023-01-17T00:20:46.813Z,98288.78
2023-01-17T00:23:38.670Z,98278.44
2023-01-17T00:26:18.382Z,98271.69
2023-01-17T00:28:47.249Z,98268.38
2023-01-17T00:31:16.128Z,98263.22
2023-01-17T00:33:43.887Z,98250.28
2023-01-17T00:36:11.806Z,98246.00
2023-01-17T00:38:40.434Z,98251.16
2023-01-17T00:41:10.392Z,98238.16
2023-01-17T00:43:56.553Z,98232.22
2023-01-17T00:46:42.896Z,98229.66
2023-01-17T00:49:28.881Z,98221.78
2023-01-17T00:52:14.841Z,98211.34
2023-01-17T00:55:00.661Z,98201.09
2023-01-17T00:57:47.086Z,98201.31
2023-01-17T01:00:34.190Z,98199.50
2023-01-17T01:03:19.928Z,98194.41
2023-01-17T01:06:06.247Z,98186.59
2023-01-17T01:08:52.550Z,98184.88
2023-01-17T01:11:40.224Z,98179.72
2023-01-17T01:14:28.989Z,98177.00
2023-01-17T01:17:15.163Z,98172.72
2023-01-17T01:20:01.313Z,98161.63
2023-01-17T01:22:47.232Z,98156.53
2023-01-17T01:25:33.444Z,98153.19
2023-01-17T01:28:30.462Z,98151.09
2023-01-17T01:31:23.964Z,98145.31
2023-01-17T01:33:52.835Z,98139.38
2023-01-17T01:36:21.080Z,98143.66
2023-01-17T01:38:50.323Z,98138.41
2023-01-17T01:41:18.163Z,98146.16
2023-01-17T01:43:51.302Z,98134.91
2023-01-17T01:46:39.943Z,98137.44
2023-01-17T01:49:25.779Z,98133.94
2023-01-17T01:51:58.581Z,98124.44
2023-01-17T01:54:31.563Z,98130.41
2023-01-17T01:57:03.539Z,98123.50
2023-01-17T01:59:34.151Z,98122.63
2023-01-17T02:02:02.286Z,98119.78
2023-01-17T02:04:29.970Z,98117.19
2023-01-17T02:07:07.470Z,98114.59
2023-01-17T02:09:35.107Z,98108.50
2023-01-17T02:12:04.456Z,98112.75
2023-01-17T02:14:32.053Z,98105.97
2023-01-17T02:17:17.453Z,98106.00
2023-01-17T02:20:23.156Z,98107.66
2023-01-17T02:23:10.421Z,98108.56
2023-01-17T02:26:10.474Z,98109.59
2023-01-17T02:28:53.162Z,98107.13
2023-01-17T02:31:37.139Z,98109.75
2023-01-17T02:34:20.524Z,98105.38
2023-01-17T02:37:04.660Z,98101.94
2023-01-17T02:39:38.477Z,98099.34
2023-01-17T02:42:16.677Z,98095.03
2023-01-17T02:44:44.996Z,98092.41
2023-01-17T02:47:26.286Z,98092.25
2023-01-17T02:49:58.209Z,98083.72
2023-01-17T02:53:09.864Z,98084.41
2023-01-17T02:55:58.066Z,98078.41
2023-01-17T02:58:40.114Z,98075.19
2023-01-17T03:01:16.094Z,98077.63
2023-01-17T03:04:03.048Z,98076.16
2023-01-17T03:07:05.870Z,98072.81
2023-01-17T03:09:33.955Z,98062.41
2023-01-17T03:12:01.447Z,98061.56
2023-01-17T03:14:31.699Z,98065.91
2023-01-17T03:16:59.433Z,98056.41
2023-01-17T03:19:27.007Z,98060.69
2023-01-17T03:21:54.370Z,98048.56
2023-01-17T03:24:21.954Z,98048.47
2023-01-17T03:26:49.642Z,98045.84
2023-01-17T03:29:17.140Z,98040.63
2023-01-17T03:31:44.604Z,98049.19
2023-01-17T03:34:11.945Z,98039.47
2023-01-17T03:36:39.091Z,98035.28
2023-01-17T03:39:06.394Z,98028.44
2023-01-17T03:41:33.644Z,98028.44
2023-01-17T03:44:01.064Z,98027.63
2023-01-17T03:46:28.844Z,98018.13
2023-01-17T03:48:56.289Z,98013.81
2023-01-17T03:51:23.842Z,98012.91
2023-01-17T03:53:52.135Z,98010.34
2023-01-17T03:56:19.990Z,98019.78
2023-01-17T03:58:47.669Z,98013.78
2023-01-17T04:01:15.244Z,98011.19
2023-01-17T04:03:42.875Z,98011.09
2023-01-17T04:06:10.085Z,98008.56
2023-01-17T04:08:37.374Z,98008.63
2023-01-17T04:11:04.585Z,98008.56
2023-01-17T04:13:31.787Z,98005.22
2023-01-17T04:15:59.052Z,98012.03
2023-01-17T04:18:26.883Z,98006.81
2023-01-17T04:20:54.275Z,97998.22
2023-01-17T04:23:21.711Z,98002.47
2023-01-17T04:25:49.010Z,98012.81
2023-01-17T04:28:16.615Z,98012.88
2023-01-17T04:30:44.090Z,98008.53
2023-01-17T04:33:11.553Z,98009.41
2023-01-17T04:35:38.888Z,98016.09
2023-01-17T04:38:06.121Z,98011.94
2023-01-17T04:40:33.303Z,98011.03
2023-01-17T04:43:00.889Z,98011.91
2023-01-17T04:45:28.289Z,98013.56
2023-01-17T04:47:55.522Z,98011.06
2023-01-17T04:50:22.802Z,98011.81
2023-01-17T04:52:50.268Z,98006.06
2023-01-17T04:55:17.854Z,98007.88
2023-01-17T04:57:45.557Z,98005.38
2023-01-17T05:00:13.978Z,98001.00
2023-01-17T05:02:41.544Z,98011.56
2023-01-17T05:05:09.114Z,98009.91
2023-01-17T05:07:36.457Z,98008.91
2023-01-17T05:10:04.588Z,98008.88
2023-01-17T05:12:32.234Z,98004.56
2023-01-17T05:14:59.684Z,98002.00
2023-01-17T05:17:27.018Z,97998.78
2023-01-17T05:19:54.200Z,97991.06
2023-01-17T05:22:21.649Z,98002.19
2023-01-17T05:24:49.085Z,97992.00
2023-01-17T05:27:16.607Z,97994.69
2023-01-17T05:29:43.931Z,97999.84
2023-01-17T05:32:11.524Z,98003.25
2023-01-17T05:34:39.086Z,97995.38
2023-01-17T05:37:06.610Z,97996.22
2023-01-17T05:39:33.951Z,97999.69
2023-01-17T05:42:01.513Z,97985.13
2023-01-17T05:44:28.872Z,97985.19
2023-01-17T05:46:56.634Z,97980.88
2023-01-17T05:49:24.125Z,97987.75
2023-01-17T05:51:53.501Z,97978.34
2023-01-17T05:54:22.306Z,97980.94
2023-01-17T05:56:49.801Z,97979.09
2023-01-17T05:59:28.566Z,97983.47
2023-01-17T06:02:03.549Z,97975.66
2023-01-17T06:04:31.162Z,97973.19
2023-01-17T06:06:58.684Z,97972.38
2023-01-17T06:09:26.043Z,97985.28
2023-01-17T06:11:53.450Z,97993.84
2023-01-17T06:14:20.628Z,97997.28
2023-01-17T06:16:48.057Z,97999.84
2023-01-17T06:19:15.389Z,97993.72
2023-01-17T06:21:42.780Z,97999.72
2023-01-17T06:24:10.248Z,97993.66
2023-01-17T06:26:37.852Z,97997.09
2023-01-17T06:29:05.338Z,97997.06
2023-01-17T06:31:32.692Z,97987.59
2023-01-17T06:34:01.945Z,97991.84
2023-01-17T06:36:29.493Z,97980.72
2023-01-17T06:38:57.170Z,97985.00
2023-01-17T06:41:26.046Z,97997.94
2023-01-17T06:43:54.124Z,97995.28
2023-01-17T06:46:23.364Z,97990.03
2023-01-17T06:48:50.805Z,97978.91
2023-01-17T06:51:18.115Z,97978.97
2023-01-17T06:53:45.588Z,97979.97
2023-01-17T06:56:13.067Z,97983.47
2023-01-17T06:58:40.403Z,97983.47
2023-01-17T07:01:12.949Z,97980.84
2023-01-17T07:03:40.859Z,97980.03
2023-01-17T07:06:09.625Z,97981.78
2023-01-17T07:08:37.263Z,97981.81
2023-01-17T07:11:06.040Z,97976.69
2023-01-17T07:13:40.211Z,97982.75
2023-01-17T07:16:09.269Z,97977.63
2023-01-17T07:18:36.660Z,97982.88
2023-01-17T07:21:04.107Z,97985.41
2023-01-17T07:23:31.315Z,98001.69
2023-01-17T07:25:59.361Z,98012.00
2023-01-17T07:28:27.946Z,98007.59
2023-01-17T07:30:55.528Z,98017.16
2023-01-17T07:33:23.254Z,98031.69
2023-01-17T07:35:51.133Z,98028.09
2023-01-17T07:38:22.351Z,98020.56
2023-01-17T07:40:51.258Z,98022.28
2023-01-17T07:43:18.658Z,98027.44
2023-01-17T07:45:48.089Z,98018.75
2023-01-17T07:48:15.787Z,98019.50
2023-01-17T07:50:43.300Z,98017.78
2023-01-17T07:53:10.980Z,98010.16
2023-01-17T07:55:38.320Z,97999.03
2023-01-17T07:58:05.851Z,97996.66
2023-01-17T08:00:33.289Z,97990.66
2023-01-17T08:03:03.945Z,97996.75
2023-01-17T08:05:32.054Z,97986.50
2023-01-17T08:07:59.560Z,97978.72
2023-01-17T08:10:27.257Z,97979.53
2023-01-17T08:12:55.470Z,97976.06
2023-01-17T08:15:23.800Z,97982.88
2023-01-17T08:17:54.719Z,97980.34
2023-01-17T08:20:22.404Z,97990.75
2023-01-17T08:22:53.494Z,98008.81
2023-01-17T08:25:21.323Z,98002.78
2023-01-17T08:27:48.725Z,98003.66
2023-01-17T08:30:16.321Z,98011.38
2023-01-17T08:32:43.751Z,98020.75
2023-01-17T08:35:11.441Z,98018.88
2023-01-17T08:37:39.342Z,98022.09
2023-01-17T08:40:08.846Z,98025.59
2023-01-17T08:42:39.427Z,98025.19
2023-01-17T08:45:09.995Z,98039.91
2023-01-17T08:47:37.966Z,98037.41
2023-01-17T08:50:07.002Z,98035.91
2023-01-17T08:52:34.694Z,98035.97
2023-01-17T08:55:02.077Z,98039.91
2023-01-17T08:57:29.578Z,98032.47
2023-01-17T08:59:57.098Z,98030.09
2023-01-17T09:02:24.872Z,98025.75
2023-01-17T09:04:52.324Z,98023.09
2023-01-17T09:07:20.913Z,98017.75
2023-01-17T09:09:49.013Z,98013.94
2023-01-17T09:12:16.524Z,98014.28
2023-01-17T09:14:43.792Z,98015.88
2023-01-17T09:17:12.694Z,98023.03
2023-01-17T09:19:48.060Z,98023.91
2023-01-17T09:22:15.727Z,98030.00
2023-01-17T09:24:43.486Z,98043.03
2023-01-17T09:27:11.281Z,98036.28
2023-01-17T09:29:38.840Z,98036.75
2023-01-17T09:32:06.508Z,98036.13
2023-01-17T09:34:33.781Z,98035.09
2023-01-17T09:37:01.081Z,98034.16
2023-01-17T09:39:28.418Z,98035.81
2023-01-17T09:41:58.762Z,98031.06
2023-01-17T09:44:43.130Z,98042.97
2023-01-17T09:47:19.990Z,98035.69
2023-01-17T09:49:47.799Z,98028.53
2023-01-17T09:52:21.113Z,98023.81
2023-01-17T09:54:50.160Z,98013.72
2023-01-17T09:57:38.856Z,98019.56
2023-01-17T10:00:41.656Z,98023.13
2023-01-17T10:03:17.223Z,98039.69
2023-01-17T10:05:58.703Z,98044.09
2023-01-17T10:08:33.939Z,98052.28
2023-01-17T10:11:22.788Z,98055.63
2023-01-17T10:14:05.874Z,98060.50
2023-01-17T10:16:41.326Z,98057.03
2023-01-17T10:19:36.802Z,98055.34
2023-01-17T10:22:33.767Z,98056.22
2023-01-17T10:25:09.309Z,98052.72
2023-01-17T10:27:58.472Z,98058.19
2023-01-17T10:30:43.592Z,98064.56
2023-01-17T10:33:18.592Z,98062.38
2023-01-17T10:36:05.946Z,98070.09
2023-01-17T10:38:38.964Z,98061.63
2023-01-17T10:41:17.934Z,98061.97
2023-01-17T10:44:13.239Z,98058.00
2023-01-17T10:46:52.963Z,98060.09
2023-01-17T10:49:23.814Z,98065.00
2023-01-17T10:52:00.192Z,98068.94
2023-01-17T10:54:46.510Z,98068.34
2023-01-17T10:57:19.692Z,98058.72
2023-01-17T10:59:47.261Z,98060.84
2023-01-17T11:02:29.311Z,98053.69
2023-01-17T11:05:02.294Z,98052.66
2023-01-17T11:07:30.094Z,98042.28
2023-01-17T11:09:59.452Z,98038.22
2023-01-17T11:12:41.301Z,98043.94
2023-01-17T11:15:08.835Z,98034.25
2023-01-17T11:17:46.718Z,98040.00
2023-01-17T11:20:32.979Z,98035.63
2023-01-17T11:23:21.824Z,98036.56
2023-01-17T11:25:55.487Z,98031.63
2023-01-17T11:28:26.598Z,98024.13
2023-01-17T11:31:23.219Z,98018.88
2023-01-17T11:34:06.522Z,98015.59
2023-01-17T11:36:34.561Z,98016.69
2023-01-17T11:39:14.139Z,98008.34
2023-01-17T11:41:42.375Z,98001.19
2023-01-17T11:44:23.169Z,98010.84
2023-01-17T11:47:11.566Z,98005.28
2023-01-17T11:49:44.471Z,97993.78
2023-01-17T11:52:26.382Z,97989.09
2023-01-17T11:54:55.433Z,97987.97
2023-01-17T11:57:35.335Z,97993.50
2023-01-17T12:00:19.494Z,97988.09
2023-01-17T12:03:10.906Z,97979.81
2023-01-17T12:05:58.539Z,97964.97
2023-01-17T12:09:10.647Z,97957.63
2023-01-17T12:12:04.522Z,97958.16
2023-01-17T12:15:07.406Z,97960.16
2023-01-17T12:17:59.875Z,97957.91
2023-01-17T12:20:41.715Z,97948.09
2023-01-17T12:23:27.984Z,97944.63
2023-01-17T12:25:55.397Z,97945.38
2023-01-17T12:28:41.209Z,97941.34
2023-01-17T12:31:21.185Z,97937.75
2023-01-17T12:34:21.079Z,97942.88
2023-01-17T12:36:51.426Z,97931.72
2023-01-17T12:39:26.236Z,97931.13
2023-01-17T12:42:06.923Z,97934.00
2023-01-17T12:44:55.773Z,97924.88
2023-01-17T12:47:23.599Z,97928.00
2023-01-17T12:50:03.320Z,97930.63
2023-01-17T12:52:49.144Z,97930.25
2023-01-17T12:55:22.165Z,97924.91
2023-01-17T12:57:58.661Z,97926.66
2023-01-17T13:00:29.929Z,97922.16
2023-01-17T13:03:29.925Z,97922.97
2023-01-17T13:05:58.080Z,97915.16
2023-01-17T13:08:46.605Z,97915.22
2023-01-17T13:11:31.178Z,97911.81
2023-01-17T13:14:00.009Z,97910.75
2023-01-17T13:16:42.186Z,97906.41
2023-01-17T13:19:25.722Z,97913.50
2023-01-17T13:21:54.583Z,97909.31
2023-01-17T13:24:25.136Z,97911.72
2023-01-17T13:26:55.577Z,97915.97
2023-01-17T13:29:32.730Z,97919.41
2023-01-17T13:32:15.916Z,97920.06
2023-01-17T13:35:05.369Z,97914.97
2023-01-17T13:38:10.467Z,97911.94
2023-01-17T13:40:54.727Z,97918.91
2023-01-17T13:43:30.425Z,97912.63
2023-01-17T13:46:01.359Z,97912.06
2023-01-17T13:48:30.815Z,97921.84
2023-01-17T13:51:03.174Z,97920.13
2023-01-17T13:53:34.415Z,97919.84
2023-01-17T13:56:12.935Z,97923.41
2023-01-17T13:58:54.734Z,97919.13
2023-01-17T14:01:22.310Z,97924.84
2023-01-17T14:03:52.750Z,97923.78
2023-01-17T14:06:52.995Z,97927.16
2023-01-17T14:09:43.060Z,97927.19
2023-01-17T14:12:10.602Z,97925.66
2023-01-17T14:14:37.992Z,97928.16
2023-01-17T14:17:20.729Z,97919.78
2023-01-17T14:19:54.525Z,97919.63
2023-01-17T14:22:21.987Z,97924.28
2023-01-17T14:25:18.056Z,97928.06
2023-01-17T14:27:46.953Z,97928.78
2023-01-17T14:30:17.939Z,97929.81
2023-01-17T14:33:08.833Z,97931.00
2023-01-17T14:35:48.968Z,97932.06
2023-01-17T14:38:21.118Z,97932.09
2023-01-17T14:40:55.199Z,97948.03
2023-01-17T14:43:25.832Z,97942.09
2023-01-17T14:45:59.073Z,97953.53
2023-01-17T14:48:28.369Z,97949.69
2023-01-17T14:51:00.041Z,97946.69
2023-01-17T14:53:32.173Z,97958.03
2023-01-17T14:56:15.466Z,97958.13
2023-01-17T14:58:43.197Z,97965.97
2023-01-17T15:01:16.207Z,97980.53
2023-01-17T15:03:46.549Z,97979.47
2023-01-17T15:06:26.819Z,97997.84
2023-01-17T15:08:54.643Z,97996.47
2023-01-17T15:11:27.876Z,97990.38
2023-01-17T15:13:57.881Z,97994.75
2023-01-17T15:16:28.898Z,98005.97
2023-01-17T15:18:57.486Z,98005.00
2023-01-17T15:21:28.194Z,98012.72
2023-01-17T15:23:59.398Z,98014.63
2023-01-17T15:26:30.154Z,98019.00
2023-01-17T15:29:06.276Z,98017.38
2023-01-17T15:31:43.471Z,98025.19
2023-01-17T15:34:24.942Z,98041.66
2023-01-17T15:36:53.190Z,98039.81
2023-01-17T15:39:27.768Z,98038.78
2023-01-17T15:41:57.888Z,98039.66
2023-01-17T15:44:46.831Z,98052.84
2023-01-17T15:47:35.924Z,98049.31
2023-01-17T15:50:28.617Z,98067.47
2023-01-17T15:53:05.339Z,98065.72
2023-01-17T15:55:39.585Z,98073.44
2023-01-17T15:58:26.068Z,98077.91
2023-01-17T16:00:54.168Z,98095.06
2023-01-17T16:03:21.811Z,98089.25
2023-01-17T16:05:50.661Z,98103.09
2023-01-17T16:08:38.784Z,98104.03
2023-01-17T16:11:09.788Z,98104.06
2023-01-17T16:13:43.425Z,98113.50
2023-01-17T16:16:19.511Z,98114.44
2023-01-17T16:18:49.353Z,98112.66
2023-01-17T16:21:23.081Z,98121.38
2023-01-17T16:23:51.177Z,98127.50
2023-01-17T16:26:19.286Z,98121.47
2023-01-17T16:28:47.332Z,98133.56
2023-01-17T16:31:15.383Z,98146.56
2023-01-17T16:33:43.244Z,98131.78
2023-01-17T16:36:13.263Z,98139.66
2023-01-17T16:38:41.342Z,98150.81
2023-01-17T16:41:08.917Z,98150.81
2023-01-17T16:43:36.839Z,98161.13
2023-01-17T16:46:04.924Z,98172.41
2023-01-17T16:48:32.442Z,98169.00
2023-01-17T16:50:59.747Z,98180.28
2023-01-17T16:53:28.320Z,98185.34
2023-01-17T16:55:59.314Z,98180.31
2023-01-17T16:58:26.937Z,98182.91
2023-01-17T17:00:56.755Z,98195.00
2023-01-17T17:03:24.230Z,98205.34
2023-01-17T17:05:55.646Z,98207.84
2023-01-17T17:08:24.154Z,98218.19
2023-01-17T17:10:51.869Z,98218.25
2023-01-17T17:13:19.391Z,98220.88
2023-01-17T17:15:47.093Z,98233.81
2023-01-17T17:18:16.968Z,98243.19
2023-01-17T17:20:45.345Z,98244.91
2023-01-17T17:23:12.939Z,98246.59
2023-01-17T17:25:40.549Z,98254.34
2023-01-17T17:28:08.950Z,98262.22
2023-01-17T17:30:36.714Z,98267.34
2023-01-17T17:33:04.823Z,98276.75
2023-01-17T17:35:35.251Z,98293.16
2023-01-17T17:38:02.794Z,98293.16
2023-01-17T17:40:29.999Z,98298.31
2023-01-17T17:42:57.310Z,98305.28
2023-01-17T17:45:24.848Z,98307.78
2023-01-17T17:47:52.847Z,98322.41
2023-01-17T17:50:20.403Z,98327.63
2023-01-17T17:52:48.651Z,98329.38
2023-01-17T17:55:19.062Z,98341.34
2023-01-17T17:57:46.833Z,98351.63
2023-01-17T18:00:14.646Z,98352.38
2023-01-17T18:02:42.100Z,98359.31
2023-01-17T18:05:10.044Z,98361.06
2023-01-17T18:07:37.566Z,98376.53
2023-01-17T18:10:05.575Z,98383.38
2023-01-17T18:12:33.024Z,98392.00
2023-01-17T18:15:00.466Z,98400.66
2023-01-17T18:17:27.962Z,98415.28
2023-01-17T18:19:55.327Z,98421.34
2023-01-17T18:22:22.924Z,98435.16
2023-01-17T18:24:50.272Z,98438.63
2023-01-17T18:27:17.783Z,98461.84
2023-01-17T18:29:45.158Z,98466.97
2023-01-17T18:32:13.303Z,98489.53
2023-01-17T18:34:42.378Z,98504.41
2023-01-17T18:37:10.834Z,98508.78
2023-01-17T18:39:38.291Z,98525.25
2023-01-17T18:42:05.664Z,98532.09
2023-01-17T18:44:32.829Z,98556.25
2023-01-17T18:47:04.525Z,98558.81
2023-01-17T18:49:33.700Z,98578.59
2023-01-17T18:52:01.455Z,98591.44
2023-01-17T18:54:29.059Z,98610.25
2023-01-17T18:56:56.505Z,98612.75
2023-01-17T18:59:24.016Z,98619.50
2023-01-17T19:01:52.267Z,98634.91
2023-01-17T19:04:25.045Z,98639.94
2023-01-17T19:07:08.264Z,98654.66
2023-01-17T19:09:35.828Z,98680.38
2023-01-17T19:12:03.289Z,98667.44
2023-01-17T19:14:30.632Z,98666.63
2023-01-17T19:16:58.087Z,98673.63
2023-01-17T19:19:25.494Z,98684.88
2023-01-17T19:21:52.780Z,98681.34
2023-01-17T19:24:20.233Z,98688.22
2023-01-17T19:26:51.253Z,98693.34
2023-01-17T19:29:18.924Z,98693.22
2023-01-17T19:31:46.366Z,98688.97
2023-01-17T19:34:14.867Z,98690.66
2023-01-17T19:36:42.626Z,98685.34
2023-01-17T19:39:13.590Z,98689.50
2023-01-17T19:41:47.365Z,98689.53
2023-01-17T19:44:15.241Z,98709.44
2023-01-17T19:46:43.879Z,98707.72
2023-01-17T19:49:11.469Z,98715.47
2023-01-17T19:51:39.742Z,98727.56
2023-01-17T19:54:08.531Z,98747.41
2023-01-17T19:56:36.740Z,98744.00
2023-01-17T19:59:04.591Z,98750.91
2023-01-17T20:01:33.496Z,98745.75
2023-01-17T20:04:02.958Z,98750.97
2023-01-17T20:06:33.103Z,98747.63
2023-01-17T20:09:01.023Z,98776.81
2023-01-17T20:11:29.859Z,98768.19
2023-01-17T20:13:58.997Z,98772.44
2023-01-17T20:16:29.280Z,98785.34
2023-01-17T20:18:58.188Z,98790.53
2023-01-17T20:21:27.835Z,98804.41
2023-01-17T20:23:57.510Z,98805.25
2023-01-17T20:26:31.293Z,98808.84
2023-01-17T20:28:59.179Z,98813.09
2023-01-17T20:31:28.533Z,98821.84
2023-01-17T20:33:56.453Z,98826.22
2023-01-17T20:36:26.316Z,98825.34
2023-01-17T20:38:54.671Z,98829.72
2023-01-17T20:41:24.186Z,98824.59
2023-01-17T20:43:54.242Z,98814.41
2023-01-17T20:46:24.955Z,98811.75
2023-01-17T20:48:55.218Z,98824.69
2023-01-17T20:51:25.460Z,98829.81
2023-01-17T20:53:56.537Z,98842.69
2023-01-17T20:56:25.163Z,98852.16
2023-01-17T20:58:56.230Z,98862.63
2023-01-17T21:01:24.144Z,98865.22
2023-01-17T21:03:54.060Z,98866.06
2023-01-17T21:06:24.572Z,98875.50
2023-01-17T21:08:52.965Z,98880.69
2023-01-17T21:11:23.560Z,98876.38
2023-01-17T21:13:51.939Z,98891.84
2023-01-17T21:16:22.989Z,98893.66
2023-01-17T21:18:51.745Z,98903.13
2023-01-17T21:21:25.401Z,98902.28
2023-01-17T21:23:55.372Z,98902.31
2023-01-17T21:26:25.818Z,98903.13
2023-01-17T21:28:54.318Z,98896.25
2023-01-17T21:31:27.915Z,98911.88
2023-01-17T21:34:04.053Z,98915.34
2023-01-17T21:36:34.557Z,98923.97
2023-01-17T21:39:05.031Z,98923.91
2023-01-17T21:41:36.016Z,98931.59
2023-01-17T21:44:11.870Z,98939.31
2023-01-17T21:46:40.843Z,98952.19
2023-01-17T21:49:13.066Z,98958.16
2023-01-17T21:51:54.182Z,98959.09
2023-01-17T21:54:43.473Z,98964.28
2023-01-17T21:57:31.354Z,98977.28
2023-01-17T21:59:58.842Z,98984.97
2023-01-17T22:02:26.284Z,98985.94
2023-01-17T22:04:54.774Z,98999.69
2023-01-17T22:07:22.570Z,99004.78
2023-01-17T22:09:50.064Z,99008.19
2023-01-17T22:12:17.298Z,99009.94
2023-01-17T22:14:44.940Z,99017.78
2023-01-17T22:17:12.391Z,99014.38
2023-01-17T22:19:39.689Z,99026.44
2023-01-17T22:22:07.065Z,99021.38
2023-01-17T22:24:34.697Z,99044.59
2023-01-17T22:27:02.094Z,99041.91
2023-01-17T22:29:29.790Z,99054.72
2023-01-17T22:31:57.101Z,99049.50
2023-01-17T22:34:24.499Z,99061.59
2023-01-17T22:36:51.886Z,99054.69
2023-01-17T22:39:19.477Z,99064.28
2023-01-17T22:41:46.751Z,99069.34
2023-01-17T22:44:14.032Z,99077.19
2023-01-17T22:46:42.252Z,99084.13
2023-01-17T22:49:13.518Z,99087.56
2023-01-17T22:51:41.246Z,99089.28
2023-01-17T22:54:09.019Z,99096.31
2023-01-17T22:56:36.584Z,99098.88
2023-01-17T22:59:05.793Z,99106.56
2023-01-17T23:01:33.327Z,99103.97
2023-01-17T23:04:04.413Z,99106.56
2023-01-17T23:06:37.261Z,99112.50
2023-01-17T23:09:08.417Z,99115.09
2023-01-17T23:11:41.238Z,99126.28
2023-01-17T23:14:22.308Z,99128.00
2023-01-17T23:17:14.466Z,99138.34
2023-01-17T23:19:53.588Z,99143.50
2023-01-17T23:22:27.110Z,99141.81
2023-01-17T23:24:56.606Z,99153.75
2023-01-17T23:27:44.334Z,99163.09
2023-01-17T23:30:13.527Z,99157.97
2023-01-17T23:32:45.674Z,99160.41
2023-01-17T23:35:13.939Z,99170.75
2023-01-17T23:38:01.629Z,99159.75
2023-01-17T23:40:31.345Z,99161.34
2023-01-17T23:43:17.733Z,99163.09
2023-01-17T23:45:45.195Z,99181.19
2023-01-17T23:48:12.730Z,99184.50
2023-01-17T23:50:42.748Z,99177.44
2023-01-17T23:53:12.036Z,99182.53
2023-01-17T23:55:41.174Z,99182.72
2023-01-17T23:58:11.116Z,99186.19
